sensor_id;sensor_type;location;lat;lon;timestamp;noise_LAeq;noise_LA_min;noise_LA_max;noise_LA01;noise_LA95
53702;Laerm;39594;52.194;9.886;2023-04-10T00:00:27;73.41;5.00;103.79;;
53702;Laerm;39594;52.194;9.886;2023-04-10T00:02:53;49.97;32.35;85.92;;
53702;Laerm;39594;52.194;9.886;2023-04-10T00:05:18;66.39;5.00;99.12;;
53702;Laerm;39594;52.194;9.886;2023-04-10T00:07:43;54.74;5.00;72.45;;
53702;Laerm;39594;52.194;9.886;2023-04-10T00:10:17;69.72;5.00;102.81;;
53702;Laerm;39594;52.194;9.886;2023-04-10T00:12:42;71.25;5.00;101.75;;
53702;Laerm;39594;52.194;9.886;2023-04-10T00:15:08;74.01;5.00;109.54;;
53702;Laerm;39594;52.194;9.886;2023-04-10T00:17:33;77.60;5.00;107.28;;
53702;Laerm;39594;52.194;9.886;2023-04-10T00:19:58;73.65;5.00;104.30;;
53702;Laerm;39594;52.194;9.886;2023-04-10T00:22:23;93.40;5.00;113.64;;
53702;Laerm;39594;52.194;9.886;2023-04-10T00:24:52;78.14;5.00;103.12;;
53702;Laerm;39594;52.194;9.886;2023-04-10T00:27:17;92.90;5.00;112.71;;
53702;Laerm;39594;52.194;9.886;2023-04-10T00:29:42;90.96;5.00;111.08;;
53702;Laerm;39594;52.194;9.886;2023-04-10T00:32:08;88.99;5.00;110.44;;
53702;Laerm;39594;52.194;9.886;2023-04-10T00:34:33;86.21;5.00;110.67;;
53702;Laerm;39594;52.194;9.886;2023-04-10T00:36:58;87.51;5.00;111.17;;
53702;Laerm;39594;52.194;9.886;2023-04-10T00:39:23;92.69;5.00;110.87;;
53702;Laerm;39594;52.194;9.886;2023-04-10T00:41:49;96.37;5.00;114.24;;
53702;Laerm;39594;52.194;9.886;2023-04-10T00:44:14;96.49;5.00;114.45;;
53702;Laerm;39594;52.194;9.886;2023-04-10T00:46:39;97.90;5.00;112.67;;
53702;Laerm;39594;52.194;9.886;2023-04-10T00:49:05;88.18;5.00;109.56;;
53702;Laerm;39594;52.194;9.886;2023-04-10T00:51:30;5.00;5.00;5.00;;
53702;Laerm;39594;52.194;9.886;2023-04-10T00:53:56;5.00;5.00;5.00;;
53702;Laerm;39594;52.194;9.886;2023-04-10T00:56:22;97.73;5.00;115.31;;
53702;Laerm;39594;52.194;9.886;2023-04-10T00:58:48;101.05;5.00;116.10;;
53702;Laerm;39594;52.194;9.886;2023-04-10T01:01:13;5.00;5.00;5.00;;
53702;Laerm;39594;52.194;9.886;2023-04-10T01:03:38;5.00;5.00;5.00;;
53702;Laerm;39594;52.194;9.886;2023-04-10T01:13:49;5.00;5.00;5.00;;
53702;Laerm;39594;52.194;9.886;2023-04-10T01:16:25;5.00;5.00;5.00;;
53702;Laerm;39594;52.194;9.886;2023-04-10T01:18:56;5.00;5.00;5.00;;
53702;Laerm;39594;52.194;9.886;2023-04-10T01:21:24;5.00;5.00;5.00;;
53702;Laerm;39594;52.194;9.886;2023-04-10T01:29:07;5.00;5.00;5.00;;
53702;Laerm;39594;52.194;9.886;2023-04-10T01:31:49;5.00;5.00;5.00;;
53702;Laerm;39594;52.194;9.886;2023-04-10T01:34:21;5.00;5.00;5.00;;
53702;Laerm;39594;52.194;9.886;2023-04-10T01:36:48;5.00;5.00;5.00;;
53702;Laerm;39594;52.194;9.886;2023-04-10T01:39:18;5.00;5.00;5.00;;
53702;Laerm;39594;52.194;9.886;2023-04-10T01:41:48;5.00;5.00;5.00;;
53702;Laerm;39594;52.194;9.886;2023-04-10T01:44:15;5.00;5.00;5.00;;
53702;Laerm;39594;52.194;9.886;2023-04-10T01:46:42;5.00;5.00;5.00;;
53702;Laerm;39594;52.194;9.886;2023-04-10T01:49:08;5.00;5.00;5.00;;
53702;Laerm;39594;52.194;9.886;2023-04-10T01:51:34;5.00;5.00;5.00;;
53702;Laerm;39594;52.194;9.886;2023-04-10T01:53:59;5.00;5.00;5.00;;
53702;Laerm;39594;52.194;9.886;2023-04-10T01:56:25;5.00;5.00;5.00;;
53702;Laerm;39594;52.194;9.886;2023-04-10T01:58:51;5.00;5.00;5.00;;
53702;Laerm;39594;52.194;9.886;2023-04-10T02:01:18;5.00;5.00;5.00;;
53702;Laerm;39594;52.194;9.886;2023-04-10T02:03:43;5.00;5.00;5.00;;
53702;Laerm;39594;52.194;9.886;2023-04-10T02:08:50;5.00;5.00;5.00;;
53702;Laerm;39594;52.194;9.886;2023-04-10T02:11:37;5.00;5.00;5.00;;
53702;Laerm;39594;52.194;9.886;2023-04-10T02:14:07;5.00;5.00;5.00;;
53702;Laerm;39594;52.194;9.886;2023-04-10T02:16:34;5.00;5.00;5.00;;
53702;Laerm;39594;52.194;9.886;2023-04-10T02:19:00;5.00;5.00;5.00;;
53702;Laerm;39594;52.194;9.886;2023-04-10T02:21:29;5.00;5.00;5.00;;
53702;Laerm;39594;52.194;9.886;2023-04-10T02:23:58;5.00;5.00;5.00;;
53702;Laerm;39594;52.194;9.886;2023-04-10T02:26:23;5.00;5.00;5.00;;
53702;Laerm;39594;52.194;9.886;2023-04-10T02:28:48;5.00;5.00;5.00;;
53702;Laerm;39594;52.194;9.886;2023-04-10T02:31:14;5.00;5.00;5.00;;
53702;Laerm;39594;52.194;9.886;2023-04-10T02:33:39;5.00;5.00;5.00;;
53702;Laerm;39594;52.194;9.886;2023-04-10T02:36:04;5.00;5.00;5.00;;
53702;Laerm;39594;52.194;9.886;2023-04-10T02:38:30;5.00;5.00;5.00;;
53702;Laerm;39594;52.194;9.886;2023-04-10T02:40:55;5.00;5.00;5.00;;
53702;Laerm;39594;52.194;9.886;2023-04-10T02:43:20;5.00;5.00;5.00;;
53702;Laerm;39594;52.194;9.886;2023-04-10T02:45:45;5.00;5.00;5.00;;
53702;Laerm;39594;52.194;9.886;2023-04-10T02:48:11;5.00;5.00;5.00;;
53702;Laerm;39594;52.194;9.886;2023-04-10T02:50:37;5.00;5.00;5.00;;
53702;Laerm;39594;52.194;9.886;2023-04-10T02:53:02;5.00;5.00;5.00;;
53702;Laerm;39594;52.194;9.886;2023-04-10T02:55:27;5.00;5.00;5.00;;
53702;Laerm;39594;52.194;9.886;2023-04-10T02:57:52;5.00;5.00;5.00;;
53702;Laerm;39594;52.194;9.886;2023-04-10T03:00:18;5.00;5.00;5.00;;
53702;Laerm;39594;52.194;9.886;2023-04-10T03:02:43;5.00;5.00;5.00;;
53702;Laerm;39594;52.194;9.886;2023-04-10T03:05:09;5.00;5.00;5.00;;
53702;Laerm;39594;52.194;9.886;2023-04-10T03:07:34;5.00;5.00;5.00;;
53702;Laerm;39594;52.194;9.886;2023-04-10T03:09:59;5.00;5.00;5.00;;
53702;Laerm;39594;52.194;9.886;2023-04-10T03:12:24;5.00;5.00;5.00;;
53702;Laerm;39594;52.194;9.886;2023-04-10T03:14:50;5.00;5.00;5.00;;
53702;Laerm;39594;52.194;9.886;2023-04-10T03:17:15;5.00;5.00;5.00;;
53702;Laerm;39594;52.194;9.886;2023-04-10T03:19:40;5.00;5.00;5.00;;
53702;Laerm;39594;52.194;9.886;2023-04-10T03:22:05;5.00;5.00;5.00;;
53702;Laerm;39594;52.194;9.886;2023-04-10T03:24:34;5.00;5.00;5.00;;
53702;Laerm;39594;52.194;9.886;2023-04-10T03:27:05;5.00;5.00;5.00;;
53702;Laerm;39594;52.194;9.886;2023-04-10T03:29:33;5.00;5.00;5.00;;
53702;Laerm;39594;52.194;9.886;2023-04-10T03:31:58;5.00;5.00;5.00;;
53702;Laerm;39594;52.194;9.886;2023-04-10T03:34:23;5.00;5.00;5.00;;
53702;Laerm;39594;52.194;9.886;2023-04-10T03:36:48;5.00;5.00;5.00;;
53702;Laerm;39594;52.194;9.886;2023-04-10T03:39:14;5.00;5.00;5.00;;
53702;Laerm;39594;52.194;9.886;2023-04-10T03:41:39;5.00;5.00;5.00;;
53702;Laerm;39594;52.194;9.886;2023-04-10T03:44:04;5.00;5.00;5.00;;
53702;Laerm;39594;52.194;9.886;2023-04-10T03:46:30;5.00;5.00;5.00;;
53702;Laerm;39594;52.194;9.886;2023-04-10T03:48:55;5.00;5.00;5.00;;
53702;Laerm;39594;52.194;9.886;2023-04-10T03:51:20;5.00;5.00;5.00;;
53702;Laerm;39594;52.194;9.886;2023-04-10T03:53:47;5.00;5.00;5.00;;
53702;Laerm;39594;52.194;9.886;2023-04-10T03:56:12;5.00;5.00;5.00;;
53702;Laerm;39594;52.194;9.886;2023-04-10T03:58:37;5.00;5.00;5.00;;
53702;Laerm;39594;52.194;9.886;2023-04-10T04:01:06;5.00;5.00;5.00;;
53702;Laerm;39594;52.194;9.886;2023-04-10T04:03:31;5.00;5.00;5.00;;
53702;Laerm;39594;52.194;9.886;2023-04-10T04:05:59;5.00;5.00;5.00;;
53702;Laerm;39594;52.194;9.886;2023-04-10T04:08:25;5.00;5.00;5.00;;
53702;Laerm;39594;52.194;9.886;2023-04-10T04:10:50;5.00;5.00;5.00;;
53702;Laerm;39594;52.194;9.886;2023-04-10T04:13:15;5.00;5.00;5.00;;
53702;Laerm;39594;52.194;9.886;2023-04-10T04:15:40;5.00;5.00;5.00;;
53702;Laerm;39594;52.194;9.886;2023-04-10T04:18:06;5.00;5.00;5.00;;
53702;Laerm;39594;52.194;9.886;2023-04-10T04:20:31;5.00;5.00;5.00;;
53702;Laerm;39594;52.194;9.886;2023-04-10T04:22:57;5.00;5.00;5.00;;
53702;Laerm;39594;52.194;9.886;2023-04-10T04:25:22;5.00;5.00;5.00;;
53702;Laerm;39594;52.194;9.886;2023-04-10T04:27:48;5.00;5.00;5.00;;
53702;Laerm;39594;52.194;9.886;2023-04-10T04:30:13;5.00;5.00;5.00;;
53702;Laerm;39594;52.194;9.886;2023-04-10T04:32:38;5.00;5.00;5.00;;
53702;Laerm;39594;52.194;9.886;2023-04-10T04:35:03;5.00;5.00;5.00;;
53702;Laerm;39594;52.194;9.886;2023-04-10T04:37:29;5.00;5.00;5.00;;
53702;Laerm;39594;52.194;9.886;2023-04-10T04:39:54;5.00;5.00;5.00;;
53702;Laerm;39594;52.194;9.886;2023-04-10T04:42:19;5.00;5.00;5.00;;
53702;Laerm;39594;52.194;9.886;2023-04-10T04:44:45;5.00;5.00;5.00;;
53702;Laerm;39594;52.194;9.886;2023-04-10T04:47:10;5.00;5.00;5.00;;
53702;Laerm;39594;52.194;9.886;2023-04-10T04:49:35;5.00;5.00;5.00;;
53702;Laerm;39594;52.194;9.886;2023-04-10T04:52:03;5.00;5.00;5.00;;
53702;Laerm;39594;52.194;9.886;2023-04-10T04:54:29;5.00;5.00;5.00;;
53702;Laerm;39594;52.194;9.886;2023-04-10T04:56:54;5.00;5.00;5.00;;
53702;Laerm;39594;52.194;9.886;2023-04-10T04:59:20;5.00;5.00;5.00;;
53702;Laerm;39594;52.194;9.886;2023-04-10T05:01:46;5.00;5.00;5.00;;
53702;Laerm;39594;52.194;9.886;2023-04-10T05:04:11;5.00;5.00;5.00;;
53702;Laerm;39594;52.194;9.886;2023-04-10T05:06:36;5.00;5.00;5.00;;
53702;Laerm;39594;52.194;9.886;2023-04-10T05:09:04;5.00;5.00;5.00;;
53702;Laerm;39594;52.194;9.886;2023-04-10T05:11:29;5.00;5.00;5.00;;
53702;Laerm;39594;52.194;9.886;2023-04-10T05:14:00;5.00;5.00;5.00;;
53702;Laerm;39594;52.194;9.886;2023-04-10T05:16:25;5.00;5.00;5.00;;
53702;Laerm;39594;52.194;9.886;2023-04-10T05:18:51;5.00;5.00;5.00;;
53702;Laerm;39594;52.194;9.886;2023-04-10T05:21:16;5.00;5.00;5.00;;
53702;Laerm;39594;52.194;9.886;2023-04-10T05:23:41;5.00;5.00;5.00;;
53702;Laerm;39594;52.194;9.886;2023-04-10T05:26:06;5.00;5.00;5.00;;
53702;Laerm;39594;52.194;9.886;2023-04-10T05:28:32;5.00;5.00;5.00;;
53702;Laerm;39594;52.194;9.886;2023-04-10T05:30:57;5.00;5.00;5.00;;
53702;Laerm;39594;52.194;9.886;2023-04-10T05:33:25;5.00;5.00;5.00;;
53702;Laerm;39594;52.194;9.886;2023-04-10T05:35:51;5.00;5.00;5.00;;
53702;Laerm;39594;52.194;9.886;2023-04-10T05:38:17;5.00;5.00;5.00;;
53702;Laerm;39594;52.194;9.886;2023-04-10T05:40:45;5.00;5.00;5.00;;
53702;Laerm;39594;52.194;9.886;2023-04-10T05:43:11;5.00;5.00;5.00;;
53702;Laerm;39594;52.194;9.886;2023-04-10T05:45:36;5.00;5.00;5.00;;
53702;Laerm;39594;52.194;9.886;2023-04-10T05:48:01;5.00;5.00;5.00;;
53702;Laerm;39594;52.194;9.886;2023-04-10T05:50:26;5.00;5.00;5.00;;
53702;Laerm;39594;52.194;9.886;2023-04-10T05:52:52;5.00;5.00;5.00;;
53702;Laerm;39594;52.194;9.886;2023-04-10T05:55:17;5.00;5.00;5.00;;
53702;Laerm;39594;52.194;9.886;2023-04-10T05:57:42;5.00;5.00;5.00;;
53702;Laerm;39594;52.194;9.886;2023-04-10T06:00:07;5.00;5.00;5.00;;
53702;Laerm;39594;52.194;9.886;2023-04-10T06:02:33;5.00;5.00;5.00;;
53702;Laerm;39594;52.194;9.886;2023-04-10T06:04:59;5.00;5.00;5.00;;
53702;Laerm;39594;52.194;9.886;2023-04-10T06:07:25;5.00;5.00;5.00;;
53702;Laerm;39594;52.194;9.886;2023-04-10T06:09:51;5.00;5.00;5.00;;
53702;Laerm;39594;52.194;9.886;2023-04-10T06:12:16;5.00;5.00;5.00;;
53702;Laerm;39594;52.194;9.886;2023-04-10T06:14:41;5.00;5.00;5.00;;
53702;Laerm;39594;52.194;9.886;2023-04-10T06:17:07;5.00;5.00;5.00;;
53702;Laerm;39594;52.194;9.886;2023-04-10T06:19:32;5.00;5.00;5.00;;
53702;Laerm;39594;52.194;9.886;2023-04-10T06:21:57;5.00;5.00;5.00;;
53702;Laerm;39594;52.194;9.886;2023-04-10T06:24:22;5.00;5.00;5.00;;
53702;Laerm;39594;52.194;9.886;2023-04-10T06:26:48;5.00;5.00;5.00;;
53702;Laerm;39594;52.194;9.886;2023-04-10T06:29:13;5.00;5.00;5.00;;
53702;Laerm;39594;52.194;9.886;2023-04-10T06:31:38;5.00;5.00;5.00;;
53702;Laerm;39594;52.194;9.886;2023-04-10T06:34:03;5.00;5.00;5.00;;
53702;Laerm;39594;52.194;9.886;2023-04-10T06:36:29;5.00;5.00;5.00;;
53702;Laerm;39594;52.194;9.886;2023-04-10T06:38:54;5.00;5.00;5.00;;
53702;Laerm;39594;52.194;9.886;2023-04-10T06:41:19;5.00;5.00;5.00;;
53702;Laerm;39594;52.194;9.886;2023-04-10T06:43:45;5.00;5.00;5.00;;
53702;Laerm;39594;52.194;9.886;2023-04-10T06:46:10;5.00;5.00;5.00;;
53702;Laerm;39594;52.194;9.886;2023-04-10T06:48:35;5.00;5.00;5.00;;
53702;Laerm;39594;52.194;9.886;2023-04-10T06:51:01;5.00;5.00;5.00;;
53702;Laerm;39594;52.194;9.886;2023-04-10T06:53:26;5.00;5.00;5.00;;
53702;Laerm;39594;52.194;9.886;2023-04-10T06:55:52;5.00;5.00;5.00;;
53702;Laerm;39594;52.194;9.886;2023-04-10T06:58:18;5.00;5.00;5.00;;
53702;Laerm;39594;52.194;9.886;2023-04-10T07:00:43;5.00;5.00;5.00;;
53702;Laerm;39594;52.194;9.886;2023-04-10T07:03:08;5.00;5.00;5.00;;
53702;Laerm;39594;52.194;9.886;2023-04-10T07:05:33;5.00;5.00;5.00;;
53702;Laerm;39594;52.194;9.886;2023-04-10T07:07:59;5.00;5.00;5.00;;
53702;Laerm;39594;52.194;9.886;2023-04-10T07:10:24;5.00;5.00;5.00;;
53702;Laerm;39594;52.194;9.886;2023-04-10T07:12:49;5.00;5.00;5.00;;
53702;Laerm;39594;52.194;9.886;2023-04-10T07:15:15;5.00;5.00;5.00;;
53702;Laerm;39594;52.194;9.886;2023-04-10T07:17:43;5.00;5.00;5.00;;
53702;Laerm;39594;52.194;9.886;2023-04-10T07:20:09;5.00;5.00;5.00;;
53702;Laerm;39594;52.194;9.886;2023-04-10T07:22:35;5.00;5.00;5.00;;
53702;Laerm;39594;52.194;9.886;2023-04-10T07:25:00;5.00;5.00;5.00;;
53702;Laerm;39594;52.194;9.886;2023-04-10T07:27:25;5.00;5.00;5.00;;
53702;Laerm;39594;52.194;9.886;2023-04-10T07:29:53;5.00;5.00;5.00;;
53702;Laerm;39594;52.194;9.886;2023-04-10T07:32:19;5.00;5.00;5.00;;
53702;Laerm;39594;52.194;9.886;2023-04-10T07:34:44;5.00;5.00;5.00;;
53702;Laerm;39594;52.194;9.886;2023-04-10T07:37:09;51.80;5.00;87.12;;
53702;Laerm;39594;52.194;9.886;2023-04-10T07:39:34;99.12;5.00;115.49;;
53702;Laerm;39594;52.194;9.886;2023-04-10T07:41:59;100.34;5.00;115.91;;
53702;Laerm;39594;52.194;9.886;2023-04-10T07:44:27;80.27;5.00;104.19;;
53702;Laerm;39594;52.194;9.886;2023-04-10T07:46:53;88.76;5.00;113.26;;
53702;Laerm;39594;52.194;9.886;2023-04-10T07:49:20;5.00;5.00;5.00;;
53702;Laerm;39594;52.194;9.886;2023-04-10T07:51:46;5.00;5.00;5.00;;
53702;Laerm;39594;52.194;9.886;2023-04-10T07:54:11;5.00;5.00;5.00;;
53702;Laerm;39594;52.194;9.886;2023-04-10T07:56:37;89.46;5.00;112.09;;
53702;Laerm;39594;52.194;9.886;2023-04-10T07:59:02;98.04;5.00;115.80;;
53702;Laerm;39594;52.194;9.886;2023-04-10T08:01:27;5.00;5.00;5.00;;
53702;Laerm;39594;52.194;9.886;2023-04-10T08:03:53;5.00;5.00;5.00;;
53702;Laerm;39594;52.194;9.886;2023-04-10T08:06:19;5.00;5.00;5.00;;
53702;Laerm;39594;52.194;9.886;2023-04-10T08:08:44;92.11;5.00;113.40;;
53702;Laerm;39594;52.194;9.886;2023-04-10T08:11:22;61.71;36.45;90.59;;
53702;Laerm;39594;52.194;9.886;2023-04-10T08:13:48;63.08;38.67;75.25;;
53702;Laerm;39594;52.194;9.886;2023-04-10T08:16:15;56.10;37.12;72.22;;
53702;Laerm;39594;52.194;9.886;2023-04-10T08:18:40;59.54;37.52;72.15;;
53702;Laerm;39594;52.194;9.886;2023-04-10T08:21:06;54.73;36.45;69.35;;
53702;Laerm;39594;52.194;9.886;2023-04-10T08:23:33;61.23;37.52;72.93;;
53702;Laerm;39594;52.194;9.886;2023-04-10T08:26:02;58.94;36.91;73.95;;
53702;Laerm;39594;52.194;9.886;2023-04-10T08:28:27;58.86;33.90;73.00;;
53702;Laerm;39594;52.194;9.886;2023-04-10T08:30:52;57.35;34.31;70.12;;
53702;Laerm;39594;52.194;9.886;2023-04-10T08:33:18;59.49;38.05;74.74;;
53702;Laerm;39594;52.194;9.886;2023-04-10T08:35:46;56.93;35.04;71.17;;
53702;Laerm;39594;52.194;9.886;2023-04-10T08:38:12;67.30;41.14;83.40;;
53702;Laerm;39594;52.194;9.886;2023-04-10T08:40:37;59.78;36.69;75.65;;
53702;Laerm;39594;52.194;9.886;2023-04-10T08:43:02;60.87;40.53;74.06;;
53702;Laerm;39594;52.194;9.886;2023-04-10T08:45:33;57.64;38.21;71.23;;
53702;Laerm;39594;52.194;9.886;2023-04-10T08:48:00;55.72;37.87;70.01;;
53702;Laerm;39594;52.194;9.886;2023-04-10T08:50:26;61.33;38.52;73.12;;
53702;Laerm;39594;52.194;9.886;2023-04-10T08:52:52;61.65;39.70;74.28;;
53702;Laerm;39594;52.194;9.886;2023-04-10T08:55:19;58.73;37.52;72.12;;
53702;Laerm;39594;52.194;9.886;2023-04-10T08:57:45;57.41;38.52;72.82;;
53702;Laerm;39594;52.194;9.886;2023-04-10T09:00:11;60.46;38.81;72.24;;
53702;Laerm;39594;52.194;9.886;2023-04-10T09:02:37;64.22;39.58;80.18;;
53702;Laerm;39594;52.194;9.886;2023-04-10T09:05:02;64.24;41.75;78.27;;
53702;Laerm;39594;52.194;9.886;2023-04-10T09:07:28;59.79;38.05;71.74;;
53702;Laerm;39594;52.194;9.886;2023-04-10T09:09:53;59.10;38.21;75.87;;
53702;Laerm;39594;52.194;9.886;2023-04-10T09:12:18;60.51;36.45;76.17;;
53702;Laerm;39594;52.194;9.886;2023-04-10T09:14:43;60.41;37.52;76.49;;
53702;Laerm;39594;52.194;9.886;2023-04-10T09:17:10;61.25;36.45;74.70;;
53702;Laerm;39594;52.194;9.886;2023-04-10T09:19:36;56.49;36.91;70.46;;
53702;Laerm;39594;52.194;9.886;2023-04-10T09:22:01;60.97;38.67;72.94;;
53702;Laerm;39594;52.194;9.886;2023-04-10T09:24:27;59.37;37.32;74.53;;
53702;Laerm;39594;52.194;9.886;2023-04-10T09:26:52;59.54;39.21;72.89;;
53702;Laerm;39594;52.194;9.886;2023-04-10T09:29:17;63.22;40.23;91.83;;
53702;Laerm;39594;52.194;9.886;2023-04-10T09:31:43;68.39;38.67;100.62;;
53702;Laerm;39594;52.194;9.886;2023-04-10T09:34:10;56.11;38.37;71.17;;
53702;Laerm;39594;52.194;9.886;2023-04-10T09:36:39;61.24;37.12;86.23;;
53702;Laerm;39594;52.194;9.886;2023-04-10T09:39:08;65.45;40.80;83.47;;
53702;Laerm;39594;52.194;9.886;2023-04-10T09:41:33;61.86;41.82;71.80;;
53702;Laerm;39594;52.194;9.886;2023-04-10T09:44:06;63.38;42.59;74.98;;
53702;Laerm;39594;52.194;9.886;2023-04-10T09:46:32;68.17;40.89;85.61;;
53702;Laerm;39594;52.194;9.886;2023-04-10T09:48:58;59.58;36.45;74.81;;
53702;Laerm;39594;52.194;9.886;2023-04-10T09:51:31;61.42;38.52;72.80;;
53702;Laerm;39594;52.194;9.886;2023-04-10T09:53:57;65.60;39.21;85.22;;
53702;Laerm;39594;52.194;9.886;2023-04-10T09:56:23;58.83;38.52;73.47;;
53702;Laerm;39594;52.194;9.886;2023-04-10T09:58:50;62.70;40.03;72.97;;
53702;Laerm;39594;52.194;9.886;2023-04-10T10:01:15;61.27;36.91;74.33;;
53702;Laerm;39594;52.194;9.886;2023-04-10T10:03:41;67.01;37.70;96.26;;
53702;Laerm;39594;52.194;9.886;2023-04-10T10:06:07;59.57;40.23;73.76;;
53702;Laerm;39594;52.194;9.886;2023-04-10T10:08:35;57.42;38.21;71.75;;
53702;Laerm;39594;52.194;9.886;2023-04-10T10:11:01;58.18;41.06;71.76;;
53702;Laerm;39594;52.194;9.886;2023-04-10T10:13:34;59.85;40.23;71.41;;
53702;Laerm;39594;52.194;9.886;2023-04-10T10:16:14;59.14;36.69;72.33;;
53702;Laerm;39594;52.194;9.886;2023-04-10T10:18:47;62.32;36.45;74.82;;
53702;Laerm;39594;52.194;9.886;2023-04-10T10:21:16;64.10;39.58;77.41;;
53702;Laerm;39594;52.194;9.886;2023-04-10T10:23:45;64.71;40.80;79.19;;
53702;Laerm;39594;52.194;9.886;2023-04-10T10:26:12;64.81;42.22;77.46;;
53702;Laerm;39594;52.194;9.886;2023-04-10T10:28:39;58.75;39.34;78.10;;
53702;Laerm;39594;52.194;9.886;2023-04-10T10:31:04;59.01;39.58;71.02;;
53702;Laerm;39594;52.194;9.886;2023-04-10T10:33:30;66.54;43.54;81.73;;
53702;Laerm;39594;52.194;9.886;2023-04-10T10:35:59;59.35;35.36;73.88;;
53702;Laerm;39594;52.194;9.886;2023-04-10T10:38:25;58.95;36.91;73.49;;
53702;Laerm;39594;52.194;9.886;2023-04-10T10:40:53;61.08;37.70;73.15;;
53702;Laerm;39594;52.194;9.886;2023-04-10T10:46:02;62.14;40.23;73.29;;
53702;Laerm;39594;52.194;9.886;2023-04-10T10:48:31;64.35;38.74;80.90;;
53702;Laerm;39594;52.194;9.886;2023-04-10T10:50:57;61.38;39.70;77.05;;
53702;Laerm;39594;52.194;9.886;2023-04-10T10:53:36;60.67;38.21;72.23;;
53702;Laerm;39594;52.194;9.886;2023-04-10T10:58:44;57.22;38.37;71.60;;
53702;Laerm;39594;52.194;9.886;2023-04-10T11:01:10;63.84;40.62;78.92;;
53702;Laerm;39594;52.194;9.886;2023-04-10T11:03:35;60.71;35.36;75.13;;
53702;Laerm;39594;52.194;9.886;2023-04-10T11:06:02;62.66;42.65;80.79;;
53702;Laerm;39594;52.194;9.886;2023-04-10T11:08:34;64.44;40.43;76.63;;
53702;Laerm;39594;52.194;9.886;2023-04-10T11:11:03;57.95;38.52;75.99;;
53702;Laerm;39594;52.194;9.886;2023-04-10T11:13:38;61.63;40.53;78.00;;
53702;Laerm;39594;52.194;9.886;2023-04-10T11:16:05;59.19;39.08;72.66;;
53702;Laerm;39594;52.194;9.886;2023-04-10T11:28:57;62.08;40.54;77.18;;
53702;Laerm;39594;52.194;9.886;2023-04-10T11:31:22;63.41;37.32;76.92;;
53702;Laerm;39594;52.194;9.886;2023-04-10T11:33:49;62.10;38.67;77.53;;
53702;Laerm;39594;52.194;9.886;2023-04-10T11:36:16;63.15;42.47;95.08;;
53702;Laerm;39594;52.194;9.886;2023-04-10T11:38:54;59.17;39.70;72.01;;
53702;Laerm;39594;52.194;9.886;2023-04-10T11:41:20;60.37;32.35;80.20;;
53702;Laerm;39594;52.194;9.886;2023-04-10T11:43:49;64.73;44.11;74.25;;
53702;Laerm;39594;52.194;9.886;2023-04-10T11:46:15;62.81;41.14;78.06;;
53702;Laerm;39594;52.194;9.886;2023-04-10T11:48:40;61.68;38.67;75.82;;
53702;Laerm;39594;52.194;9.886;2023-04-10T11:51:06;62.04;38.52;82.74;;
53702;Laerm;39594;52.194;9.886;2023-04-10T11:53:31;60.90;32.35;74.62;;
53702;Laerm;39594;52.194;9.886;2023-04-10T11:55:56;56.96;36.69;72.68;;
53702;Laerm;39594;52.194;9.886;2023-04-10T11:58:25;62.30;37.12;73.79;;
53702;Laerm;39594;52.194;9.886;2023-04-10T12:01:24;60.83;35.66;71.92;;
53702;Laerm;39594;52.194;9.886;2023-04-10T12:03:43;64.20;41.75;74.97;;
53702;Laerm;39594;52.194;9.886;2023-04-10T12:06:12;59.53;38.05;85.10;;
53702;Laerm;39594;52.194;9.886;2023-04-10T12:08:38;57.90;5.00;69.36;;
53702;Laerm;39594;52.194;9.886;2023-04-10T12:11:04;62.85;41.14;75.27;;
53702;Laerm;39594;52.194;9.886;2023-04-10T12:13:30;62.38;39.57;76.96;;
53702;Laerm;39594;52.194;9.886;2023-04-10T12:15:59;61.39;40.89;77.71;;
53702;Laerm;39594;52.194;9.886;2023-04-10T12:18:26;66.84;42.88;91.78;;
53702;Laerm;39594;52.194;9.886;2023-04-10T12:20:51;62.62;42.41;80.01;;
53702;Laerm;39594;52.194;9.886;2023-04-10T12:23:20;63.66;42.53;77.61;;
53702;Laerm;39594;52.194;9.886;2023-04-10T12:25:45;60.89;40.03;78.94;;
53702;Laerm;39594;52.194;9.886;2023-04-10T12:28:15;63.31;42.29;81.86;;
53702;Laerm;39594;52.194;9.886;2023-04-10T12:30:48;62.73;41.30;74.23;;
53702;Laerm;39594;52.194;9.886;2023-04-10T12:33:18;61.77;39.23;75.32;;
53702;Laerm;39594;52.194;9.886;2023-04-10T12:35:44;63.00;36.45;76.55;;
53702;Laerm;39594;52.194;9.886;2023-04-10T12:38:09;62.12;42.22;80.01;;
53702;Laerm;39594;52.194;9.886;2023-04-10T12:40:34;64.13;43.63;86.21;;
53702;Laerm;39594;52.194;9.886;2023-04-10T12:43:00;62.22;41.82;86.21;;
53702;Laerm;39594;52.194;9.886;2023-04-10T12:45:43;69.56;40.80;103.76;;
53702;Laerm;39594;52.194;9.886;2023-04-10T12:48:09;76.65;38.52;109.21;;
53702;Laerm;39594;52.194;9.886;2023-04-10T12:50:44;74.06;40.89;106.51;;
53702;Laerm;39594;52.194;9.886;2023-04-10T12:53:10;69.80;41.53;103.87;;
53702;Laerm;39594;52.194;9.886;2023-04-10T12:55:37;61.26;39.08;70.26;;
53702;Laerm;39594;52.194;9.886;2023-04-10T12:58:16;59.95;41.68;75.10;;
53702;Laerm;39594;52.194;9.886;2023-04-10T13:00:41;62.95;42.22;78.52;;
53702;Laerm;39594;52.194;9.886;2023-04-10T13:03:07;62.22;41.06;91.78;;
53702;Laerm;39594;52.194;9.886;2023-04-10T13:05:32;78.30;40.98;107.81;;
53702;Laerm;39594;52.194;9.886;2023-04-10T13:07:57;76.20;41.46;106.10;;
53702;Laerm;39594;52.194;9.886;2023-04-10T13:10:23;59.49;37.12;86.25;;
53702;Laerm;39594;52.194;9.886;2023-04-10T13:12:48;85.64;5.00;114.38;;
53702;Laerm;39594;52.194;9.886;2023-04-10T13:15:13;82.42;40.03;108.89;;
53702;Laerm;39594;52.194;9.886;2023-04-10T13:17:38;76.93;40.89;109.34;;
53702;Laerm;39594;52.194;9.886;2023-04-10T13:20:05;64.21;41.38;76.13;;
53702;Laerm;39594;52.194;9.886;2023-04-10T13:22:31;63.48;38.52;76.69;;
53702;Laerm;39594;52.194;9.886;2023-04-10T13:24:56;79.11;41.89;106.41;;
53702;Laerm;39594;52.194;9.886;2023-04-10T13:27:21;76.43;34.69;105.78;;
53702;Laerm;39594;52.194;9.886;2023-04-10T13:29:47;62.36;39.92;95.07;;
53702;Laerm;39594;52.194;9.886;2023-04-10T13:32:12;63.26;41.82;77.77;;
53702;Laerm;39594;52.194;9.886;2023-04-10T13:34:37;66.74;39.58;83.10;;
53702;Laerm;39594;52.194;9.886;2023-04-10T13:37:03;63.02;41.30;83.87;;
53702;Laerm;39594;52.194;9.886;2023-04-10T13:39:28;61.48;39.81;73.36;;
53702;Laerm;39594;52.194;9.886;2023-04-10T13:41:53;60.64;39.46;71.43;;
53702;Laerm;39594;52.194;9.886;2023-04-10T13:44:19;64.22;41.61;77.28;;
53702;Laerm;39594;52.194;9.886;2023-04-10T13:46:45;59.05;39.70;72.30;;
53702;Laerm;39594;52.194;9.886;2023-04-10T13:49:10;59.26;40.89;74.55;;
53702;Laerm;39594;52.194;9.886;2023-04-10T13:51:35;61.67;40.03;75.79;;
53702;Laerm;39594;52.194;9.886;2023-04-10T13:54:01;65.44;38.21;83.44;;
53702;Laerm;39594;52.194;9.886;2023-04-10T13:56:28;59.66;36.69;73.92;;
53702;Laerm;39594;52.194;9.886;2023-04-10T13:58:54;64.16;5.00;80.13;;
53702;Laerm;39594;52.194;9.886;2023-04-10T14:01:19;59.45;41.38;70.56;;
53702;Laerm;39594;52.194;9.886;2023-04-10T14:03:44;61.52;30.89;85.94;;
53702;Laerm;39594;52.194;9.886;2023-04-10T14:06:09;60.34;39.46;79.54;;
53702;Laerm;39594;52.194;9.886;2023-04-10T14:08:35;63.69;40.98;78.28;;
53702;Laerm;39594;52.194;9.886;2023-04-10T14:11:00;60.88;23.90;85.66;;
53702;Laerm;39594;52.194;9.886;2023-04-10T14:13:25;65.72;39.46;86.23;;
53702;Laerm;39594;52.194;9.886;2023-04-10T14:15:51;59.55;36.91;85.04;;
53702;Laerm;39594;52.194;9.886;2023-04-10T14:18:17;57.61;29.92;86.14;;
53702;Laerm;39594;52.194;9.886;2023-04-10T14:20:44;58.20;38.81;70.64;;
53702;Laerm;39594;52.194;9.886;2023-04-10T14:23:09;62.15;39.34;77.16;;
53702;Laerm;39594;52.194;9.886;2023-04-10T14:25:41;62.29;39.21;75.75;;
53702;Laerm;39594;52.194;9.886;2023-04-10T14:28:06;59.46;38.87;73.50;;